createdAt,value
2023-05-27T00:00:28.960Z,17.80
2023-05-27T00:01:01.859Z,17.70
2023-05-27T00:01:33.705Z,17.70
2023-05-27T00:02:05.598Z,17.70
2023-05-27T00:02:40.570Z,17.70
2023-05-27T00:03:12.792Z,17.70
2023-05-27T00:03:45.806Z,17.70
2023-05-27T00:04:18.837Z,17.70
2023-05-27T00:04:50.847Z,17.60
2023-05-27T00:05:22.710Z,17.60
2023-05-27T00:05:55.578Z,17.50
2023-05-27T00:06:27.470Z,17.50
2023-05-27T00:06:59.434Z,17.50
2023-05-27T00:07:32.713Z,17.50
2023-05-27T00:08:05.480Z,17.50
2023-05-27T00:08:37.362Z,17.50
2023-05-27T00:09:10.485Z,17.60
2023-05-27T00:09:42.320Z,17.50
2023-05-27T00:10:14.183Z,17.50
2023-05-27T00:10:46.068Z,17.50
2023-05-27T00:11:18.985Z,17.50
2023-05-27T00:11:50.880Z,17.50
2023-05-27T00:12:22.737Z,17.50
2023-05-27T00:12:55.585Z,17.50
2023-05-27T00:13:27.868Z,17.50
2023-05-27T00:13:59.712Z,17.40
2023-05-27T00:14:32.771Z,17.40
2023-05-27T00:15:05.340Z,17.40
2023-05-27T00:15:39.140Z,17.40
2023-05-27T00:16:12.199Z,17.40
2023-05-27T00:16:44.130Z,17.40
2023-05-27T00:17:17.048Z,17.40
2023-05-27T00:17:51.003Z,17.40
2023-05-27T00:18:23.241Z,17.30
2023-05-27T00:18:56.605Z,17.30
2023-05-27T00:19:30.266Z,17.40
2023-05-27T00:20:07.512Z,17.30
2023-05-27T00:20:40.742Z,17.40
2023-05-27T00:21:12.630Z,17.30
2023-05-27T00:21:44.560Z,17.30
2023-05-27T00:22:16.559Z,17.30
2023-05-27T00:22:50.604Z,17.30
2023-05-27T00:23:22.455Z,17.30
2023-05-27T00:23:54.359Z,17.30
2023-05-27T00:24:27.403Z,17.30
2023-05-27T00:24:59.297Z,17.30
2023-05-27T00:25:32.503Z,17.30
2023-05-27T00:26:05.370Z,17.20
2023-05-27T00:26:37.244Z,17.20
2023-05-27T00:27:09.614Z,17.30
2023-05-27T00:27:42.435Z,17.20
2023-05-27T00:28:14.348Z,17.30
2023-05-27T00:28:46.207Z,17.20
2023-05-27T00:29:19.421Z,17.20
2023-05-27T00:29:51.308Z,17.30
2023-05-27T00:30:23.206Z,17.20
2023-05-27T00:30:56.010Z,17.20
2023-05-27T00:31:28.199Z,17.20
2023-05-27T00:32:01.451Z,17.20
2023-05-27T00:32:33.381Z,17.20
2023-05-27T00:33:07.701Z,17.10
2023-05-27T00:33:40.379Z,17.10
2023-05-27T00:34:12.623Z,17.10
2023-05-27T00:34:46.877Z,17.10
2023-05-27T00:35:18.904Z,17.10
2023-05-27T00:35:50.933Z,17.00
2023-05-27T00:36:23.988Z,17.00
2023-05-27T00:36:55.833Z,17.10
2023-05-27T00:37:27.642Z,17.00
2023-05-27T00:37:59.521Z,17.00
2023-05-27T00:38:32.316Z,17.00
2023-05-27T00:39:04.667Z,17.10
2023-05-27T00:39:36.626Z,17.00
2023-05-27T00:40:12.316Z,17.00
2023-05-27T00:40:44.670Z,17.00
2023-05-27T00:41:16.572Z,17.00
2023-05-27T00:41:51.482Z,17.00
2023-05-27T00:42:23.505Z,17.00
2023-05-27T00:42:55.347Z,17.00
2023-05-27T00:43:28.226Z,17.00
2023-05-27T00:44:00.172Z,17.00
2023-05-27T00:44:32.121Z,17.00
2023-05-27T00:45:05.271Z,16.90
2023-05-27T00:45:37.226Z,16.90
2023-05-27T00:46:09.212Z,16.90
2023-05-27T00:46:42.117Z,16.80
2023-05-27T00:47:16.914Z,16.80
2023-05-27T00:47:50.060Z,16.80
2023-05-27T00:48:24.418Z,16.80
2023-05-27T00:48:56.381Z,16.80
2023-05-27T00:49:28.578Z,16.70
2023-05-27T00:50:01.823Z,16.80
2023-05-27T00:50:33.864Z,16.70
2023-05-27T00:51:06.250Z,16.70
2023-05-27T00:51:39.235Z,16.70
2023-05-27T00:52:11.074Z,16.70
2023-05-27T00:52:42.935Z,16.70
2023-05-27T00:53:16.335Z,16.70
2023-05-27T00:53:48.227Z,16.70
2023-05-27T00:54:20.361Z,16.80
2023-05-27T00:54:54.143Z,16.80
2023-05-27T00:55:26.393Z,16.70
2023-05-27T00:55:59.441Z,16.80
2023-05-27T00:56:31.405Z,16.80
2023-05-27T00:57:04.457Z,16.70
2023-05-27T00:57:36.349Z,16.70
2023-05-27T00:58:10.206Z,16.70
2023-05-27T00:58:44.486Z,16.70
2023-05-27T00:59:16.885Z,16.70
2023-05-27T00:59:48.799Z,16.60
2023-05-27T01:00:21.658Z,16.70
2023-05-27T01:00:53.563Z,16.60
2023-05-27T01:01:26.680Z,16.60
2023-05-27T01:01:59.881Z,16.60
2023-05-27T01:02:32.003Z,16.60
2023-05-27T01:03:04.800Z,16.60
2023-05-27T01:03:39.889Z,16.60
2023-05-27T01:04:14.268Z,16.60
2023-05-27T01:04:47.665Z,16.60
2023-05-27T01:05:20.100Z,16.60
2023-05-27T01:05:56.248Z,16.60
2023-05-27T01:06:40.789Z,16.50
2023-05-27T01:07:18.685Z,16.50
2023-05-27T01:08:05.590Z,16.50
2023-05-27T01:08:45.566Z,16.50
2023-05-27T01:09:25.959Z,16.50
2023-05-27T01:10:08.886Z,16.50
2023-05-27T01:10:45.774Z,16.40
2023-05-27T01:11:24.308Z,16.40
2023-05-27T01:12:03.988Z,16.40
2023-05-27T01:12:41.529Z,16.40
2023-05-27T01:13:20.517Z,16.40
2023-05-27T01:13:59.904Z,16.40
2023-05-27T01:14:34.431Z,16.40
2023-05-27T01:15:08.595Z,16.40
2023-05-27T01:15:41.460Z,16.40
2023-05-27T01:16:16.776Z,16.40
2023-05-27T01:16:53.194Z,16.40
2023-05-27T01:17:27.799Z,16.40
2023-05-27T01:18:04.223Z,16.40
2023-05-27T01:18:41.251Z,16.40
2023-05-27T01:19:15.752Z,16.40
2023-05-27T01:19:48.910Z,16.40
2023-05-27T01:20:22.031Z,16.40
2023-05-27T01:20:56.895Z,16.40
2023-05-27T01:21:32.504Z,16.30
2023-05-27T01:22:07.306Z,16.40
2023-05-27T01:22:42.506Z,16.40
2023-05-27T01:23:14.905Z,16.40
2023-05-27T01:23:50.400Z,16.40
2023-05-27T01:24:22.269Z,16.30
2023-05-27T01:24:54.229Z,16.40
2023-05-27T01:25:27.229Z,16.30
2023-05-27T01:25:59.067Z,16.40
2023-05-27T01:26:31.035Z,16.40
2023-05-27T01:27:03.889Z,16.40
2023-05-27T01:27:35.828Z,16.40
2023-05-27T01:28:07.718Z,16.30
2023-05-27T01:28:41.045Z,16.40
2023-05-27T01:29:13.388Z,16.40
2023-05-27T01:29:45.286Z,16.40
2023-05-27T01:30:18.525Z,16.40
2023-05-27T01:30:54.345Z,16.40
2023-05-27T01:31:32.124Z,16.30
2023-05-27T01:32:14.067Z,16.30
2023-05-27T01:32:52.502Z,16.30
2023-05-27T01:33:31.677Z,16.40
2023-05-27T01:34:10.330Z,16.40
2023-05-27T01:34:53.754Z,16.40
2023-05-27T01:35:31.570Z,16.30
2023-05-27T01:36:09.048Z,16.30
2023-05-27T01:36:46.437Z,16.30
2023-05-27T01:37:23.748Z,16.20
2023-05-27T01:38:01.025Z,16.20
2023-05-27T01:38:34.329Z,16.20
2023-05-27T01:39:11.936Z,16.20
2023-05-27T01:39:44.618Z,16.10
2023-05-27T01:40:16.761Z,16.10
2023-05-27T01:40:52.321Z,16.10
2023-05-27T01:41:24.909Z,16.10
2023-05-27T01:41:58.420Z,16.10
2023-05-27T01:42:31.441Z,16.10
2023-05-27T01:43:03.775Z,16.10
2023-05-27T01:43:36.026Z,16.10
2023-05-27T01:44:09.650Z,16.10
2023-05-27T01:44:42.624Z,16.10
2023-05-27T01:45:15.003Z,16.10
2023-05-27T01:45:48.243Z,16.10
2023-05-27T01:46:20.323Z,16.10
2023-05-27T01:46:52.278Z,16.10
2023-05-27T01:47:25.301Z,16.10
2023-05-27T01:47:57.366Z,16.10
2023-05-27T01:48:29.430Z,16.20
2023-05-27T01:49:01.309Z,16.20
2023-05-27T01:49:34.087Z,16.20
2023-05-27T01:50:07.836Z,16.20
2023-05-27T01:50:40.044Z,16.10
2023-05-27T01:51:12.933Z,16.10
2023-05-27T01:51:44.762Z,16.20
2023-05-27T01:52:16.645Z,16.10
2023-05-27T01:52:49.493Z,16.10
2023-05-27T01:53:22.725Z,16.10
2023-05-27T01:53:54.619Z,16.10
2023-05-27T01:54:27.434Z,16.10
2023-05-27T01:54:59.308Z,16.10
2023-05-27T01:55:31.649Z,16.00
2023-05-27T01:56:03.496Z,16.10
2023-05-27T01:56:36.519Z,16.10
2023-05-27T01:57:08.364Z,16.00
2023-05-27T01:57:40.229Z,16.10
2023-05-27T01:58:12.076Z,16.00
2023-05-27T01:58:44.886Z,16.00
2023-05-27T01:59:16.712Z,16.00
2023-05-27T01:59:48.622Z,16.00
2023-05-27T02:00:21.497Z,15.90
2023-05-27T02:00:53.572Z,15.90
2023-05-27T02:01:25.578Z,15.90
2023-05-27T02:01:58.394Z,15.90
2023-05-27T02:02:30.451Z,15.90
2023-05-27T02:03:02.758Z,16.00
2023-05-27T02:03:35.736Z,16.00
2023-05-27T02:04:07.944Z,16.00
2023-05-27T02:04:39.818Z,15.90
2023-05-27T02:05:12.651Z,16.00
2023-05-27T02:05:45.746Z,15.90
2023-05-27T02:06:18.526Z,16.00
2023-05-27T02:06:50.523Z,16.00
2023-05-27T02:07:23.784Z,16.00
2023-05-27T02:07:57.385Z,16.00
2023-05-27T02:08:30.847Z,16.00
2023-05-27T02:09:02.678Z,16.00
2023-05-27T02:09:35.490Z,16.00
2023-05-27T02:10:08.410Z,16.00
2023-05-27T02:10:40.241Z,15.90
2023-05-27T02:11:13.042Z,16.00
2023-05-27T02:11:44.916Z,16.00
2023-05-27T02:12:16.782Z,15.90
2023-05-27T02:12:49.714Z,16.00
2023-05-27T02:13:21.562Z,15.90
2023-05-27T02:13:53.444Z,15.90
2023-05-27T02:14:26.276Z,15.90
2023-05-27T02:14:58.155Z,15.90
2023-05-27T02:15:29.970Z,15.80
2023-05-27T02:16:02.802Z,15.80
2023-05-27T02:16:35.088Z,15.80
2023-05-27T02:17:07.567Z,15.80
2023-05-27T02:17:40.551Z,15.80
2023-05-27T02:18:14.034Z,15.80
2023-05-27T02:18:45.999Z,15.80
2023-05-27T02:19:21.358Z,15.80
2023-05-27T02:19:53.286Z,15.80
2023-05-27T02:20:25.303Z,15.80
2023-05-27T02:20:58.194Z,15.80
2023-05-27T02:21:29.999Z,15.80
2023-05-27T02:22:02.040Z,15.80
2023-05-27T02:22:34.851Z,15.80
2023-05-27T02:23:08.327Z,15.70
2023-05-27T02:23:41.679Z,15.70
2023-05-27T02:24:14.506Z,15.70
2023-05-27T02:24:46.361Z,15.80
2023-05-27T02:25:18.221Z,15.70
2023-05-27T02:25:50.403Z,15.70
2023-05-27T02:26:23.779Z,15.70
2023-05-27T02:26:55.615Z,15.70
2023-05-27T02:27:27.430Z,15.80
2023-05-27T02:28:03.552Z,15.70
2023-05-27T02:28:35.664Z,15.80
2023-05-27T02:29:07.553Z,15.70
2023-05-27T02:29:40.461Z,15.80
2023-05-27T02:30:13.764Z,15.80
2023-05-27T02:30:45.691Z,15.70
2023-05-27T02:31:18.551Z,15.70
2023-05-27T02:31:50.474Z,15.70
2023-05-27T02:32:22.359Z,15.60
2023-05-27T02:32:54.255Z,15.60
2023-05-27T02:33:27.428Z,15.60
2023-05-27T02:33:59.280Z,15.60
2023-05-27T02:34:31.217Z,15.60
2023-05-27T02:35:04.035Z,15.60
2023-05-27T02:35:35.909Z,15.60
2023-05-27T02:36:08.267Z,15.60
2023-05-27T02:36:41.051Z,15.60
2023-05-27T02:37:12.946Z,15.50
2023-05-27T02:37:44.852Z,15.50
2023-05-27T02:38:16.816Z,15.50
2023-05-27T02:38:51.006Z,15.50
2023-05-27T02:39:22.819Z,15.50
2023-05-27T02:39:55.445Z,15.40
2023-05-27T02:40:29.484Z,15.40
2023-05-27T02:41:01.395Z,15.40
2023-05-27T02:41:33.289Z,15.40
2023-05-27T02:42:06.582Z,15.40
2023-05-27T02:42:38.439Z,15.40
2023-05-27T02:43:10.347Z,15.40
2023-05-27T02:43:43.177Z,15.40
2023-05-27T02:44:15.236Z,15.40
2023-05-27T02:44:47.070Z,15.40
2023-05-27T02:45:18.950Z,15.40
2023-05-27T02:45:52.033Z,15.40
2023-05-27T02:46:24.269Z,15.40
2023-05-27T02:46:56.169Z,15.30
2023-05-27T02:47:29.156Z,15.40
2023-05-27T02:48:02.250Z,15.40
2023-05-27T02:48:35.158Z,15.40
2023-05-27T02:49:07.021Z,15.40
2023-05-27T02:49:38.875Z,15.40
2023-05-27T02:50:12.050Z,15.40
2023-05-27T02:50:43.934Z,15.30
2023-05-27T02:51:15.975Z,15.40
2023-05-27T02:51:48.844Z,15.40
2023-05-27T02:52:20.799Z,15.40
2023-05-27T02:52:52.655Z,15.40
2023-05-27T02:53:25.493Z,15.40
2023-05-27T02:53:58.720Z,15.40
2023-05-27T02:54:30.620Z,15.30
2023-05-27T02:55:03.272Z,15.30
2023-05-27T02:55:36.642Z,15.30
2023-05-27T02:56:08.966Z,15.30
2023-05-27T02:56:40.885Z,15.30
2023-05-27T02:57:13.729Z,15.30
2023-05-27T02:57:45.559Z,15.40
2023-05-27T02:58:17.763Z,15.40
2023-05-27T02:58:50.716Z,15.30
2023-05-27T02:59:22.592Z,15.30
2023-05-27T02:59:54.480Z,15.30
2023-05-27T03:00:26.693Z,15.40
2023-05-27T03:00:59.642Z,15.30
2023-05-27T03:01:33.587Z,15.30
2023-05-27T03:02:06.155Z,15.30
2023-05-27T03:02:39.233Z,15.40
2023-05-27T03:03:11.247Z,15.30
2023-05-27T03:03:43.230Z,15.30
2023-05-27T03:04:17.444Z,15.30
2023-05-27T03:04:49.559Z,15.30
2023-05-27T03:05:21.653Z,15.30
2023-05-27T03:05:54.621Z,15.30
2023-05-27T03:06:26.915Z,15.30
2023-05-27T03:06:58.796Z,15.30
2023-05-27T03:07:30.715Z,15.30
2023-05-27T03:08:03.860Z,15.30
2023-05-27T03:08:36.727Z,15.30
2023-05-27T03:09:11.149Z,15.30
2023-05-27T03:09:43.974Z,15.30
2023-05-27T03:10:16.015Z,15.30
2023-05-27T03:10:47.880Z,15.20
2023-05-27T03:11:20.714Z,15.10
2023-05-27T03:11:52.529Z,15.30
2023-05-27T03:12:24.402Z,15.20
2023-05-27T03:12:57.234Z,15.20
2023-05-27T03:13:29.147Z,15.20
2023-05-27T03:14:01.018Z,15.20
2023-05-27T03:14:33.869Z,15.20
2023-05-27T03:15:06.955Z,15.20
2023-05-27T03:15:39.329Z,15.20
2023-05-27T03:16:13.879Z,15.20
2023-05-27T03:16:46.268Z,15.20
2023-05-27T03:17:20.437Z,15.30
2023-05-27T03:17:53.375Z,15.20
2023-05-27T03:18:25.318Z,15.20
2023-05-27T03:18:57.150Z,15.20
2023-05-27T03:19:29.988Z,15.20
2023-05-27T03:20:01.858Z,15.20
2023-05-27T03:20:33.757Z,15.20
2023-05-27T03:21:07.143Z,15.20
2023-05-27T03:21:38.976Z,15.20
2023-05-27T03:22:10.998Z,15.20
2023-05-27T03:22:44.108Z,15.30
2023-05-27T03:23:16.185Z,15.20
2023-05-27T03:23:48.059Z,15.20
2023-05-27T03:24:22.186Z,15.30
2023-05-27T03:24:55.134Z,15.30
2023-05-27T03:25:27.133Z,15.20
2023-05-27T03:25:59.946Z,15.20
2023-05-27T03:26:31.767Z,15.20
2023-05-27T03:27:04.405Z,15.20
2023-05-27T03:27:37.196Z,15.20
2023-05-27T03:28:09.095Z,15.20
2023-05-27T03:28:42.029Z,15.20
2023-05-27T03:29:13.868Z,15.20
2023-05-27T03:29:46.436Z,15.20
2023-05-27T03:30:18.285Z,15.10
2023-05-27T03:30:51.407Z,15.10
2023-05-27T03:31:23.416Z,15.10
2023-05-27T03:31:55.341Z,15.20
2023-05-27T03:32:28.265Z,15.20
2023-05-27T03:33:00.373Z,15.20
2023-05-27T03:33:32.286Z,15.20
2023-05-27T03:34:05.202Z,15.10
2023-05-27T03:34:37.136Z,15.10
2023-05-27T03:35:09.754Z,15.10
2023-05-27T03:35:42.586Z,15.10
2023-05-27T03:36:15.426Z,15.20
2023-05-27T03:36:47.583Z,15.10
2023-05-27T03:37:19.598Z,15.10
2023-05-27T03:37:52.398Z,15.10
2023-05-27T03:38:24.285Z,15.10
2023-05-27T03:38:57.174Z,15.10
2023-05-27T03:39:30.470Z,15.00
2023-05-27T03:40:04.174Z,15.00
2023-05-27T03:40:35.998Z,15.00
2023-05-27T03:41:09.204Z,15.00
2023-05-27T03:41:42.401Z,15.00
2023-05-27T03:42:14.362Z,15.00
2023-05-27T03:42:46.486Z,15.00
2023-05-27T03:43:19.347Z,15.00
2023-05-27T03:43:51.185Z,15.00
2023-05-27T03:44:23.158Z,15.00
2023-05-27T03:44:56.070Z,15.10
2023-05-27T03:45:28.027Z,15.00
2023-05-27T03:45:59.927Z,15.10
2023-05-27T03:46:32.792Z,15.10
2023-05-27T03:47:05.518Z,15.10
2023-05-27T03:47:37.416Z,15.10
2023-05-27T03:48:10.312Z,15.10
2023-05-27T03:48:42.252Z,15.10
2023-05-27T03:49:14.136Z,15.10
2023-05-27T03:49:46.065Z,15.20
2023-05-27T03:50:19.223Z,15.10
2023-05-27T03:50:51.205Z,15.10
2023-05-27T03:51:23.373Z,15.10
2023-05-27T03:51:56.289Z,15.10
2023-05-27T03:52:28.173Z,15.00
2023-05-27T03:53:00.092Z,15.00
2023-05-27T03:53:33.053Z,15.00
2023-05-27T03:54:05.491Z,15.00
2023-05-27T03:54:38.786Z,15.00
2023-05-27T03:55:12.507Z,15.00
2023-05-27T03:55:44.362Z,15.10
2023-05-27T03:56:16.424Z,15.10
2023-05-27T03:56:49.243Z,15.00
2023-05-27T03:57:21.078Z,15.10
2023-05-27T03:57:53.945Z,15.10
2023-05-27T03:58:25.816Z,15.10
2023-05-27T03:58:57.838Z,15.10
2023-05-27T03:59:30.659Z,15.10
2023-05-27T04:00:07.165Z,15.00
2023-05-27T04:00:40.097Z,15.00
2023-05-27T04:01:13.209Z,15.00
2023-05-27T04:01:45.565Z,15.00
2023-05-27T04:02:18.484Z,15.00
2023-05-27T04:02:50.808Z,15.00
2023-05-27T04:03:22.780Z,15.00
2023-05-27T04:03:54.790Z,15.00
2023-05-27T04:04:27.678Z,15.00
2023-05-27T04:05:00.554Z,14.80
2023-05-27T04:05:32.492Z,14.90
2023-05-27T04:06:06.682Z,15.00
2023-05-27T04:06:38.513Z,15.00
2023-05-27T04:07:10.339Z,15.00
2023-05-27T04:07:43.150Z,15.00
2023-05-27T04:08:15.409Z,15.10
2023-05-27T04:08:48.276Z,15.10
2023-05-27T04:09:20.374Z,15.10
2023-05-27T04:09:53.663Z,15.10
2023-05-27T04:10:26.457Z,15.10
2023-05-27T04:10:58.438Z,15.10
2023-05-27T04:11:31.456Z,15.20
2023-05-27T04:12:04.553Z,15.20
2023-05-27T04:12:36.410Z,15.20
2023-05-27T04:13:08.258Z,15.20
2023-05-27T04:13:41.077Z,15.20
2023-05-27T04:14:13.099Z,15.20
2023-05-27T04:14:44.960Z,15.20
2023-05-27T04:15:17.816Z,15.20
2023-05-27T04:15:49.964Z,15.20
2023-05-27T04:16:22.965Z,15.20
2023-05-27T04:16:55.956Z,15.20
2023-05-27T04:17:27.959Z,15.20
2023-05-27T04:17:59.877Z,15.20
2023-05-27T04:18:31.757Z,15.20
2023-05-27T04:19:04.594Z,15.20
2023-05-27T04:19:37.852Z,15.20
2023-05-27T04:20:14.848Z,15.20
2023-05-27T04:20:49.523Z,15.20
2023-05-27T04:21:21.468Z,15.20
2023-05-27T04:21:53.338Z,15.10
2023-05-27T04:22:25.186Z,15.20
2023-05-27T04:22:58.006Z,15.20
2023-05-27T04:23:29.872Z,15.10
2023-05-27T04:24:01.705Z,15.10
2023-05-27T04:24:34.528Z,15.10
2023-05-27T04:25:08.349Z,15.10
2023-05-27T04:25:40.162Z,15.10
2023-05-27T04:26:13.030Z,15.10
2023-05-27T04:26:44.995Z,15.10
2023-05-27T04:27:20.158Z,15.10
2023-05-27T04:27:52.956Z,15.10
2023-05-27T04:28:24.785Z,15.10
2023-05-27T04:29:00.539Z,15.10
2023-05-27T04:29:33.327Z,15.10
2023-05-27T04:30:07.050Z,15.10
2023-05-27T04:30:41.044Z,15.20
2023-05-27T04:31:16.833Z,15.20
2023-05-27T04:31:49.050Z,15.20
2023-05-27T04:32:21.845Z,15.10
2023-05-27T04:32:55.642Z,15.10
2023-05-27T04:33:27.708Z,15.10
2023-05-27T04:33:59.856Z,15.20
2023-05-27T04:34:32.659Z,15.20
2023-05-27T04:35:05.638Z,15.20
2023-05-27T04:35:37.462Z,15.20
2023-05-27T04:36:11.000Z,15.10
2023-05-27T04:36:44.836Z,15.10
2023-05-27T04:37:17.790Z,15.20
2023-05-27T04:37:50.967Z,15.20
2023-05-27T04:38:23.184Z,15.20
2023-05-27T04:38:55.036Z,15.20
2023-05-27T04:39:27.981Z,15.20
2023-05-27T04:39:59.899Z,15.20
2023-05-27T04:40:35.166Z,15.20
2023-05-27T04:41:08.094Z,15.20
2023-05-27T04:41:40.739Z,15.20
2023-05-27T04:42:13.326Z,15.30
2023-05-27T04:42:46.155Z,15.20
2023-05-27T04:43:18.002Z,15.20
2023-05-27T04:43:50.034Z,15.20
2023-05-27T04:44:22.980Z,15.20
2023-05-27T04:44:54.821Z,15.20
2023-05-27T04:45:27.834Z,15.20
2023-05-27T04:46:01.461Z,15.20
2023-05-27T04:46:34.303Z,15.30
2023-05-27T04:47:06.996Z,15.20
2023-05-27T04:47:42.041Z,15.20
2023-05-27T04:48:14.036Z,15.20
2023-05-27T04:48:47.170Z,15.20
2023-05-27T04:49:19.021Z,15.20
2023-05-27T04:49:52.730Z,15.20
2023-05-27T04:50:24.705Z,15.20
2023-05-27T04:50:57.847Z,15.20
2023-05-27T04:51:30.648Z,15.20
2023-05-27T04:52:02.478Z,15.20
2023-05-27T04:52:38.056Z,15.30
2023-05-27T04:53:10.956Z,15.30
2023-05-27T04:53:42.941Z,15.30
2023-05-27T04:54:15.049Z,15.30
2023-05-27T04:54:47.849Z,15.30
2023-05-27T04:55:19.738Z,15.30
2023-05-27T04:55:53.120Z,15.30
2023-05-27T04:56:26.129Z,15.30
2023-05-27T04:56:57.934Z,15.30
2023-05-27T04:57:29.991Z,15.40
2023-05-27T04:58:04.516Z,15.30
2023-05-27T04:58:37.636Z,15.30
2023-05-27T04:59:09.566Z,15.30
2023-05-27T05:00:00.233Z,15.30
2023-05-27T05:00:39.919Z,15.40
2023-05-27T05:01:18.001Z,15.30
2023-05-27T05:02:10.616Z,15.30
2023-05-27T05:02:43.588Z,15.30
2023-05-27T05:03:21.848Z,15.20
2023-05-27T05:04:12.103Z,15.20
2023-05-27T05:04:43.955Z,15.20
2023-05-27T05:05:16.265Z,15.30
2023-05-27T05:05:50.694Z,15.30
2023-05-27T05:06:23.443Z,15.30
2023-05-27T05:06:56.623Z,15.30
2023-05-27T05:07:29.517Z,15.30
2023-05-27T05:08:01.391Z,15.30
2023-05-27T05:08:33.219Z,15.30
2023-05-27T05:09:06.634Z,15.30
2023-05-27T05:09:38.469Z,15.40
2023-05-27T05:10:11.544Z,15.40
2023-05-27T05:10:44.416Z,15.40
2023-05-27T05:11:17.663Z,15.30
2023-05-27T05:11:49.551Z,15.30
2023-05-27T05:12:22.435Z,15.40
2023-05-27T05:12:54.351Z,15.40
2023-05-27T05:13:29.895Z,15.40
2023-05-27T05:14:01.892Z,15.40
2023-05-27T05:14:34.140Z,15.40
2023-05-27T05:15:08.185Z,15.40
2023-05-27T05:15:40.436Z,15.50
2023-05-27T05:16:12.382Z,15.50
2023-05-27T05:16:45.390Z,15.50
2023-05-27T05:17:17.296Z,15.50
2023-05-27T05:17:49.165Z,15.50
2023-05-27T05:18:22.033Z,15.50
2023-05-27T05:18:53.928Z,15.50
2023-05-27T05:19:26.012Z,15.50
2023-05-27T05:19:58.931Z,15.50
2023-05-27T05:20:31.390Z,15.50
2023-05-27T05:21:03.343Z,15.50
2023-05-27T05:21:37.255Z,15.50
2023-05-27T05:22:09.129Z,15.50
2023-05-27T05:22:41.011Z,15.50
2023-05-27T05:23:13.841Z,15.60
2023-05-27T05:23:45.764Z,15.60
2023-05-27T05:24:17.754Z,15.60
2023-05-27T05:24:50.398Z,15.60
2023-05-27T05:25:23.374Z,15.60
2023-05-27T05:25:59.239Z,15.70
2023-05-27T05:26:32.468Z,15.70
2023-05-27T05:27:06.860Z,15.70
2023-05-27T05:27:38.715Z,15.70
2023-05-27T05:28:10.595Z,15.70
2023-05-27T05:28:43.413Z,15.70
2023-05-27T05:29:15.273Z,15.70
2023-05-27T05:29:47.145Z,15.70
2023-05-27T05:30:19.986Z,15.80
2023-05-27T05:30:51.996Z,15.80
2023-05-27T05:31:24.614Z,15.80
2023-05-27T05:31:57.638Z,15.80
2023-05-27T05:32:29.610Z,15.80
2023-05-27T05:33:01.602Z,15.80
2023-05-27T05:33:34.414Z,15.80
2023-05-27T05:34:06.520Z,15.80
2023-05-27T05:34:38.564Z,15.80
2023-05-27T05:35:10.693Z,15.80
2023-05-27T05:35:43.547Z,15.80
2023-05-27T05:36:15.474Z,15.80
2023-05-27T05:36:48.273Z,15.80
2023-05-27T05:37:20.148Z,15.80
2023-05-27T05:37:52.046Z,15.80
2023-05-27T05:38:25.039Z,15.80
2023-05-27T05:38:56.916Z,15.80
2023-05-27T05:39:28.809Z,15.80
2023-05-27T05:40:01.668Z,15.80
2023-05-27T05:40:33.610Z,15.80
2023-05-27T05:41:06.152Z,15.80
2023-05-27T05:41:40.330Z,15.80
2023-05-27T05:42:12.352Z,15.80
2023-05-27T05:42:44.218Z,15.80
2023-05-27T05:43:17.146Z,15.80
2023-05-27T05:43:49.016Z,15.80
2023-05-27T05:44:21.646Z,15.80
2023-05-27T05:44:54.940Z,15.80
2023-05-27T05:45:26.966Z,15.90
2023-05-27T05:46:00.878Z,15.90
2023-05-27T05:46:33.788Z,16.00
2023-05-27T05:47:05.815Z,15.90
2023-05-27T05:47:37.762Z,16.00
2023-05-27T05:48:10.622Z,16.00
2023-05-27T05:48:42.614Z,16.00
2023-05-27T05:49:14.607Z,16.00
2023-05-27T05:49:47.496Z,16.00
2023-05-27T05:50:19.552Z,16.00
2023-05-27T05:50:52.536Z,16.00
2023-05-27T05:51:24.862Z,16.00
2023-05-27T05:51:56.747Z,16.00
2023-05-27T05:52:30.576Z,16.00
2023-05-27T05:53:02.461Z,16.00
2023-05-27T05:53:35.394Z,16.10
2023-05-27T05:54:07.329Z,16.10
2023-05-27T05:54:39.197Z,16.10
2023-05-27T05:55:12.078Z,16.10
2023-05-27T05:55:43.948Z,16.10
2023-05-27T05:56:15.862Z,16.10
2023-05-27T05:56:49.116Z,16.10
2023-05-27T05:57:21.998Z,16.10
2023-05-27T05:57:53.923Z,16.10
2023-05-27T05:58:25.779Z,16.10
2023-05-27T05:58:58.794Z,16.10
2023-05-27T05:59:30.659Z,16.10
2023-05-27T06:00:02.541Z,16.10
2023-05-27T06:00:35.774Z,16.10
2023-05-27T06:01:07.847Z,16.10
2023-05-27T06:01:39.701Z,16.20
2023-05-27T06:02:12.569Z,16.10
2023-05-27T06:02:44.685Z,16.20
2023-05-27T06:03:16.822Z,16.10
2023-05-27T06:03:49.859Z,16.20
2023-05-27T06:04:21.925Z,16.10
2023-05-27T06:04:53.949Z,16.10
2023-05-27T06:05:27.920Z,16.10
2023-05-27T06:05:59.884Z,16.10
2023-05-27T06:06:31.781Z,16.10
2023-05-27T06:07:04.722Z,16.20
2023-05-27T06:07:36.579Z,16.20
2023-05-27T06:08:08.479Z,16.20
2023-05-27T06:08:41.243Z,16.20
2023-05-27T06:09:13.085Z,16.20
2023-05-27T06:09:46.023Z,16.20
2023-05-27T06:10:18.990Z,16.20
2023-05-27T06:10:51.534Z,16.20
2023-05-27T06:11:23.751Z,16.20
2023-05-27T06:11:57.918Z,16.10
2023-05-27T06:12:29.747Z,16.10
2023-05-27T06:13:01.699Z,16.20
2023-05-27T06:13:34.634Z,16.10
2023-05-27T06:14:07.950Z,16.10
2023-05-27T06:14:39.833Z,16.20
2023-05-27T06:15:13.258Z,16.20
2023-05-27T06:15:45.203Z,16.20
2023-05-27T06:16:17.112Z,16.20
2023-05-27T06:16:49.945Z,16.20
2023-05-27T06:17:21.824Z,16.10
2023-05-27T06:17:54.498Z,16.10
2023-05-27T06:18:27.382Z,16.00
2023-05-27T06:18:59.276Z,16.00
2023-05-27T06:19:31.143Z,16.00
2023-05-27T06:20:04.286Z,16.00
2023-05-27T06:20:36.266Z,16.00
2023-05-27T06:21:08.237Z,16.00
2023-05-27T06:21:41.342Z,16.10
2023-05-27T06:22:13.212Z,16.10
2023-05-27T06:22:45.092Z,16.10
2023-05-27T06:23:17.917Z,16.10
2023-05-27T06:23:49.797Z,16.10
2023-05-27T06:24:21.714Z,16.10
2023-05-27T06:24:54.552Z,16.20
2023-05-27T06:25:26.463Z,16.20
2023-05-27T06:25:58.349Z,16.20
2023-05-27T06:26:31.190Z,16.20
2023-05-27T06:27:05.280Z,16.20
2023-05-27T06:27:37.281Z,16.20
2023-05-27T06:28:10.059Z,16.20
2023-05-27T06:28:41.923Z,16.30
2023-05-27T06:29:13.789Z,16.30
2023-05-27T06:29:47.458Z,16.30
2023-05-27T06:30:20.345Z,16.30
2023-05-27T06:30:52.349Z,16.30
2023-05-27T06:31:24.382Z,16.30
2023-05-27T06:31:57.222Z,16.30
2023-05-27T06:32:29.309Z,16.30
2023-05-27T06:33:01.520Z,16.30
2023-05-27T06:33:34.406Z,16.40
2023-05-27T06:34:06.355Z,16.40
2023-05-27T06:34:38.200Z,16.30
2023-05-27T06:35:11.249Z,16.30
2023-05-27T06:35:43.085Z,16.30
2023-05-27T06:36:14.971Z,16.30
2023-05-27T06:36:49.880Z,16.30
2023-05-27T06:37:21.826Z,16.30
2023-05-27T06:37:53.700Z,16.20
2023-05-27T06:38:27.113Z,16.20
2023-05-27T06:38:59.587Z,16.20
2023-05-27T06:39:31.449Z,16.20
2023-05-27T06:40:05.326Z,16.20
2023-05-27T06:40:37.148Z,16.20
2023-05-27T06:41:09.200Z,16.40
2023-05-27T06:41:42.131Z,16.30
2023-05-27T06:42:15.999Z,16.30
2023-05-27T06:42:47.850Z,16.30
2023-05-27T06:43:20.713Z,16.40
2023-05-27T06:43:52.571Z,16.40
2023-05-27T06:44:24.440Z,16.50
2023-05-27T06:44:57.297Z,16.50
2023-05-27T06:45:29.114Z,16.50
2023-05-27T06:46:03.601Z,16.50
2023-05-27T06:46:37.775Z,16.50
2023-05-27T06:47:09.657Z,16.50
2023-05-27T06:47:41.530Z,16.60
2023-05-27T06:48:14.498Z,16.60
2023-05-27T06:48:46.340Z,16.60
2023-05-27T06:49:18.163Z,16.60
2023-05-27T06:49:50.928Z,16.70
2023-05-27T06:50:22.792Z,16.70
2023-05-27T06:50:54.708Z,16.70
2023-05-27T06:51:28.111Z,16.70
2023-05-27T06:52:00.228Z,16.70
2023-05-27T06:52:33.071Z,16.70
2023-05-27T06:53:04.935Z,16.70
2023-05-27T06:53:36.827Z,16.70
2023-05-27T06:54:09.679Z,16.80
2023-05-27T06:54:41.602Z,16.80
2023-05-27T06:55:13.447Z,16.80
2023-05-27T06:55:46.243Z,16.80
2023-05-27T06:56:18.153Z,16.70
2023-05-27T06:56:50.042Z,16.70
2023-05-27T06:57:24.210Z,16.70
2023-05-27T06:57:56.060Z,16.70
2023-05-27T06:58:27.940Z,16.70
2023-05-27T06:59:00.790Z,16.70
2023-05-27T06:59:32.679Z,16.70
2023-05-27T07:00:06.293Z,16.70
2023-05-27T07:00:39.131Z,16.70
2023-05-27T07:01:11.312Z,16.70
2023-05-27T07:01:43.254Z,16.70
2023-05-27T07:02:16.134Z,16.80
2023-05-27T07:02:48.356Z,16.80
2023-05-27T07:03:20.316Z,16.80
2023-05-27T07:03:53.556Z,16.90
2023-05-27T07:04:25.534Z,16.90